createdAt,value
2022-08-14T00:01:54.360Z,100903.28
2022-08-14T00:04:34.160Z,100760.19
2022-08-14T00:07:10.696Z,100887.44
2022-08-14T00:09:56.147Z,100760.38
2022-08-14T00:12:33.643Z,100904.00
2022-08-14T00:15:29.655Z,100885.47
2022-08-14T00:18:04.482Z,100900.53
2022-08-14T00:20:42.985Z,100881.25
2022-08-14T00:23:16.681Z,100898.00
2022-08-14T00:25:54.116Z,100892.94
2022-08-14T00:28:35.587Z,100858.91
2022-08-14T00:31:04.555Z,100845.00
2022-08-14T00:33:52.247Z,100865.38
2022-08-14T00:36:48.311Z,100877.00
2022-08-14T00:39:06.608Z,100845.69
2022-08-14T00:41:36.337Z,100866.00
2022-08-14T00:44:06.160Z,100822.38
2022-08-14T00:46:33.529Z,100855.13
2022-08-14T00:49:00.927Z,100860.34
2022-08-14T00:51:37.721Z,100868.03
2022-08-14T00:54:16.703Z,100826.69
2022-08-14T00:56:54.793Z,100866.75
2022-08-14T00:59:27.493Z,100861.47
2022-08-14T01:01:58.679Z,100863.00
2022-08-14T01:04:38.215Z,100855.69
2022-08-14T01:07:20.781Z,100850.16
2022-08-14T01:10:02.159Z,100839.25
2022-08-14T01:12:29.860Z,100762.53
2022-08-14T01:14:59.203Z,100801.78
2022-08-14T01:17:49.464Z,100826.06
2022-08-14T01:20:35.955Z,100846.28
2022-08-14T01:23:16.477Z,100842.19
2022-08-14T01:25:48.131Z,100855.03
2022-08-14T01:28:47.355Z,100754.06
2022-08-14T01:31:02.008Z,100828.34
2022-08-14T01:33:30.205Z,100813.72
2022-08-14T01:36:03.700Z,100820.56
2022-08-14T01:38:37.363Z,100809.13
2022-08-14T01:41:15.979Z,100814.53
2022-08-14T01:44:04.276Z,100733.22
2022-08-14T01:46:36.741Z,100822.06
2022-08-14T01:49:07.923Z,100797.56
2022-08-14T01:51:36.444Z,100804.66
2022-08-14T01:54:09.697Z,100815.81
2022-08-14T01:56:39.048Z,100815.41
2022-08-14T01:59:07.395Z,100797.06
2022-08-14T02:01:37.994Z,100790.09
2022-08-14T02:04:40.939Z,100751.69
2022-08-14T02:06:57.276Z,100745.22
2022-08-14T02:09:24.801Z,100770.28
2022-08-14T02:11:54.618Z,100780.63
2022-08-14T02:14:31.631Z,100770.44
2022-08-14T02:16:59.721Z,100766.66
2022-08-14T02:19:31.567Z,100616.97
2022-08-14T02:22:02.852Z,100765.53
2022-08-14T02:24:39.367Z,100772.75
2022-08-14T02:28:25.370Z,100792.47
2022-08-14T02:29:59.801Z,100759.25
2022-08-14T02:32:30.387Z,100753.63
2022-08-14T02:35:18.754Z,100798.56
2022-08-14T02:37:49.368Z,100792.38
2022-08-14T02:40:32.160Z,100781.78
2022-08-14T02:43:02.743Z,100702.66
2022-08-14T02:45:37.952Z,100745.91
2022-08-14T02:48:10.516Z,100779.63
2022-08-14T02:50:54.263Z,100713.59
2022-08-14T02:53:20.994Z,100726.53
2022-08-14T02:55:47.650Z,100782.38
2022-08-14T02:58:21.465Z,100776.97
2022-08-14T03:00:58.273Z,100778.03
2022-08-14T03:03:26.064Z,100734.84
2022-08-14T03:05:54.365Z,100755.56
2022-08-14T03:08:22.502Z,100700.31
2022-08-14T03:10:50.113Z,100718.47
2022-08-14T03:13:21.027Z,100718.25
2022-08-14T03:15:55.846Z,100738.34
2022-08-14T03:18:31.793Z,100677.69
2022-08-14T03:21:11.279Z,100732.47
2022-08-14T03:23:39.233Z,100732.03
2022-08-14T03:26:12.925Z,100712.44
2022-08-14T03:28:47.846Z,100725.91
2022-08-14T03:31:15.808Z,100708.91
2022-08-14T03:33:43.405Z,100691.72
2022-08-14T03:37:51.226Z,100722.56
2022-08-14T03:39:12.651Z,100622.16
2022-08-14T03:41:48.773Z,100721.63
2022-08-14T03:45:18.747Z,100720.22
2022-08-14T03:47:03.189Z,100727.75
2022-08-14T03:49:30.438Z,100666.31
2022-08-14T03:52:00.457Z,100708.69
2022-08-14T03:54:28.252Z,100717.00
2022-08-14T03:56:55.099Z,100710.38
2022-08-14T03:59:22.338Z,100709.13
2022-08-14T04:01:58.068Z,100692.75
2022-08-14T04:04:33.645Z,100730.28
2022-08-14T04:07:00.514Z,100738.22
2022-08-14T04:09:27.572Z,100725.53
2022-08-14T04:11:56.059Z,100713.69
2022-08-14T04:14:23.617Z,100744.63
2022-08-14T04:16:50.709Z,100659.63
2022-08-14T04:19:19.377Z,100723.84
2022-08-14T04:22:02.314Z,100718.44
2022-08-14T04:24:39.216Z,100711.59
2022-08-14T04:27:11.835Z,100740.59
2022-08-14T04:29:45.064Z,100699.31
2022-08-14T04:32:58.520Z,100738.94
2022-08-14T04:34:59.242Z,100739.78
2022-08-14T04:37:45.833Z,100673.09
2022-08-14T04:40:32.167Z,100736.94
2022-08-14T04:43:17.969Z,100691.78
2022-08-14T04:45:45.333Z,100675.63
2022-08-14T04:48:39.672Z,100709.72
2022-08-14T04:51:10.888Z,100720.16
2022-08-14T04:53:43.128Z,100712.91
2022-08-14T04:56:31.250Z,100675.53
2022-08-14T04:59:09.673Z,100674.69
2022-08-14T05:01:44.846Z,100705.69
2022-08-14T05:04:16.367Z,100706.94
2022-08-14T05:06:47.060Z,100583.50
2022-08-14T05:09:15.962Z,100675.59
2022-08-14T05:11:44.599Z,100714.03
2022-08-14T05:14:16.649Z,100686.47
2022-08-14T05:17:01.844Z,100687.72
2022-08-14T05:19:29.827Z,100712.06
2022-08-14T05:22:16.136Z,100723.28
2022-08-14T05:24:50.658Z,100695.50
2022-08-14T05:27:22.776Z,100729.94
2022-08-14T05:29:55.144Z,100723.66
2022-08-14T05:32:23.581Z,100708.44
2022-08-14T05:34:57.577Z,100732.13
2022-08-14T05:37:24.433Z,100721.91
2022-08-14T05:39:53.427Z,100703.78
2022-08-14T05:42:22.356Z,100726.63
2022-08-14T05:44:55.426Z,100729.94
2022-08-14T05:47:22.875Z,100709.16
2022-08-14T05:49:50.206Z,100726.94
2022-08-14T05:52:18.815Z,100707.38
2022-08-14T05:54:53.245Z,100714.16
2022-08-14T05:57:20.806Z,100624.63
2022-08-14T05:59:48.111Z,100704.13
2022-08-14T06:02:14.741Z,100698.19
2022-08-14T06:04:48.264Z,100678.06
2022-08-14T06:07:16.097Z,100663.13
2022-08-14T06:09:42.711Z,100610.53
2022-08-14T06:12:55.212Z,100704.31
2022-08-14T06:15:08.009Z,100640.00
2022-08-14T06:17:58.580Z,100681.63
2022-08-14T06:20:26.590Z,100699.03
2022-08-14T06:22:56.289Z,100517.25
2022-08-14T06:25:23.695Z,100656.25
2022-08-14T06:27:52.160Z,100606.75
2022-08-14T06:30:22.052Z,100688.16
2022-08-14T06:32:52.327Z,100676.47
2022-08-14T06:35:23.498Z,100686.81
2022-08-14T06:37:53.025Z,100702.53
2022-08-14T06:40:26.933Z,100699.63
2022-08-14T06:42:56.434Z,100674.06
2022-08-14T06:45:26.484Z,100691.50
2022-08-14T06:47:54.245Z,100686.63
2022-08-14T06:50:27.831Z,100696.97
2022-08-14T06:52:55.732Z,100680.03
2022-08-14T06:55:27.646Z,100678.53
2022-08-14T06:57:55.181Z,100696.03
2022-08-14T07:00:30.785Z,100633.44
2022-08-14T07:03:17.517Z,100688.00
2022-08-14T07:05:57.584Z,100660.91
2022-08-14T07:08:31.790Z,100680.97
2022-08-14T07:11:01.603Z,100672.22
2022-08-14T07:13:30.350Z,100633.81
2022-08-14T07:16:00.711Z,100671.50
2022-08-14T07:18:35.580Z,100672.91
2022-08-14T07:21:04.613Z,100679.03
2022-08-14T07:23:31.730Z,100640.47
2022-08-14T07:26:02.221Z,100687.97
2022-08-14T07:28:43.411Z,100675.06
2022-08-14T07:31:12.292Z,100684.59
2022-08-14T07:33:50.189Z,100681.44
2022-08-14T07:36:27.359Z,100671.06
2022-08-14T07:39:00.668Z,100685.47
2022-08-14T07:41:31.158Z,100680.03
2022-08-14T07:44:29.243Z,100682.16
2022-08-14T07:46:48.181Z,100688.44
2022-08-14T07:49:17.741Z,100677.09
2022-08-14T07:51:44.846Z,100665.16
2022-08-14T07:54:12.363Z,100696.66
2022-08-14T07:56:46.921Z,100692.88
2022-08-14T07:59:18.317Z,100659.88
2022-08-14T08:01:48.357Z,100652.34
2022-08-14T08:04:27.122Z,100688.97
2022-08-14T08:06:54.913Z,100651.63
2022-08-14T08:09:32.157Z,100682.75
2022-08-14T08:12:04.759Z,100650.91
2022-08-14T08:14:56.666Z,100656.88
2022-08-14T08:17:23.453Z,100681.41
2022-08-14T08:19:51.443Z,100678.34
2022-08-14T08:22:19.314Z,100632.31
2022-08-14T08:25:02.667Z,100649.75
2022-08-14T08:27:29.267Z,100693.63
2022-08-14T08:30:05.137Z,100695.28
2022-08-14T08:32:45.351Z,100662.34
2022-08-14T08:35:21.246Z,100663.53
2022-08-14T08:37:48.921Z,100669.69
2022-08-14T08:40:42.807Z,100646.75
2022-08-14T08:43:22.191Z,100670.94
2022-08-14T08:46:06.343Z,100663.28
2022-08-14T08:48:52.158Z,100652.69
2022-08-14T08:51:31.216Z,100595.66
2022-08-14T08:54:05.258Z,100681.31
2022-08-14T08:56:43.345Z,100662.34
2022-08-14T08:59:30.851Z,100677.06
2022-08-14T09:02:05.412Z,100677.75
2022-08-14T09:04:45.500Z,100674.59
2022-08-14T09:07:26.761Z,100673.72
2022-08-14T09:09:59.477Z,100667.25
2022-08-14T09:12:31.454Z,100668.94
2022-08-14T09:15:12.360Z,100614.56
2022-08-14T09:17:44.126Z,100650.06
2022-08-14T09:20:29.401Z,100624.41
2022-08-14T09:22:58.429Z,100650.28
2022-08-14T09:25:58.591Z,100669.53
2022-08-14T09:28:12.783Z,100651.78
2022-08-14T09:30:49.354Z,100652.41
2022-08-14T09:33:57.464Z,100663.06
2022-08-14T09:36:48.721Z,100655.97
2022-08-14T09:39:36.738Z,100499.03
2022-08-14T09:42:21.049Z,100642.28
2022-08-14T09:45:15.303Z,100644.75
2022-08-14T09:47:56.798Z,100647.00
2022-08-14T09:50:30.091Z,100553.75
2022-08-14T09:53:04.526Z,100640.13
2022-08-14T09:55:36.873Z,100620.09
2022-08-14T09:58:19.229Z,100569.34
2022-08-14T10:01:01.833Z,100615.41
2022-08-14T10:03:37.238Z,100622.81
2022-08-14T10:06:13.739Z,100633.19
2022-08-14T10:08:51.975Z,100621.84
2022-08-14T10:11:23.576Z,100535.78
2022-08-14T10:13:55.892Z,100585.00
2022-08-14T10:16:33.402Z,100603.53
2022-08-14T10:19:04.686Z,100621.78
2022-08-14T10:21:38.699Z,100616.81
2022-08-14T10:24:23.825Z,100621.31
2022-08-14T10:27:01.382Z,100605.84
2022-08-14T10:29:41.135Z,100606.81
2022-08-14T10:32:18.053Z,100612.84
2022-08-14T10:35:13.998Z,100595.41
2022-08-14T10:37:50.369Z,100592.31
2022-08-14T10:40:37.935Z,100596.03
2022-08-14T10:43:23.095Z,100530.31
2022-08-14T10:46:21.607Z,100578.44
2022-08-14T10:49:04.363Z,100514.72
2022-08-14T10:51:35.305Z,100550.75
2022-08-14T10:54:17.114Z,100574.94
2022-08-14T10:56:57.531Z,100546.84
2022-08-14T10:59:30.772Z,100551.47
2022-08-14T11:02:03.017Z,100533.78
2022-08-14T11:04:30.784Z,100515.38
2022-08-14T11:06:58.588Z,100494.97
2022-08-14T11:09:26.093Z,100533.81
2022-08-14T11:12:36.343Z,100426.25
2022-08-14T11:15:02.206Z,100534.78
2022-08-14T11:17:32.336Z,100545.66
2022-08-14T11:20:01.872Z,100531.56
2022-08-14T11:22:55.915Z,100511.41
2022-08-14T11:25:18.574Z,100529.41
2022-08-14T11:27:47.082Z,100506.47
2022-08-14T11:30:50.010Z,100540.16
2022-08-14T11:33:07.618Z,100543.72
2022-08-14T11:35:47.228Z,100533.91
2022-08-14T11:38:14.419Z,100494.50
2022-08-14T11:40:46.768Z,100546.06
2022-08-14T11:43:15.115Z,100529.50
2022-08-14T11:45:48.621Z,100401.81
2022-08-14T11:49:03.431Z,100504.41
2022-08-14T11:51:12.885Z,100466.94
2022-08-14T11:53:42.345Z,100542.56
2022-08-14T11:56:11.191Z,100522.19
2022-08-14T11:58:38.684Z,100536.34
2022-08-14T12:01:10.096Z,100523.31
2022-08-14T12:03:46.756Z,100527.81
2022-08-14T12:06:29.827Z,100527.28
2022-08-14T12:09:08.911Z,100456.00
2022-08-14T12:11:43.865Z,100521.44
2022-08-14T12:14:31.186Z,100507.22
2022-08-14T12:17:05.134Z,100504.41
2022-08-14T12:19:33.659Z,100507.06
2022-08-14T12:22:02.727Z,100515.63
2022-08-14T12:24:35.926Z,100502.44
2022-08-14T12:27:03.934Z,100502.44
2022-08-14T12:29:31.975Z,100492.91
2022-08-14T12:32:06.679Z,100499.28
2022-08-14T12:34:37.054Z,100444.34
2022-08-14T12:37:08.969Z,100483.53
2022-08-14T12:39:39.776Z,100477.72
2022-08-14T12:42:08.032Z,100483.31
2022-08-14T12:44:39.782Z,100481.50
2022-08-14T12:47:17.852Z,100468.09
2022-08-14T12:49:58.242Z,100426.03
2022-08-14T12:52:47.424Z,100438.03
2022-08-14T12:55:32.637Z,100457.50
2022-08-14T12:58:29.531Z,100473.66
2022-08-14T13:01:16.734Z,100452.41
2022-08-14T13:03:48.150Z,100437.00
2022-08-14T13:06:19.406Z,100444.34
2022-08-14T13:08:53.401Z,100451.19
2022-08-14T13:11:23.800Z,100445.44
2022-08-14T13:13:58.712Z,100426.50
2022-08-14T13:16:33.841Z,100428.47
2022-08-14T13:19:09.716Z,100438.22
2022-08-14T13:21:58.627Z,100436.84
2022-08-14T13:24:27.823Z,100426.38
2022-08-14T13:26:58.329Z,100416.47
2022-08-14T13:29:29.726Z,100387.09
2022-08-14T13:31:58.712Z,100414.31
2022-08-14T13:34:28.037Z,100404.69
2022-08-14T13:37:04.223Z,100376.38
2022-08-14T13:39:36.483Z,100380.25
2022-08-14T13:42:10.871Z,100337.78
2022-08-14T13:44:42.862Z,100385.28
2022-08-14T13:47:15.953Z,100373.19
2022-08-14T13:49:57.162Z,100383.34
2022-08-14T13:52:52.287Z,100276.94
2022-08-14T13:55:13.910Z,100357.09
2022-08-14T13:57:55.925Z,100372.59
2022-08-14T14:00:35.938Z,100363.59
2022-08-14T14:03:23.776Z,100352.66
2022-08-14T14:05:54.383Z,100341.75
2022-08-14T14:08:46.529Z,100311.63
2022-08-14T14:11:10.345Z,100364.06
2022-08-14T14:13:44.836Z,100358.97
2022-08-14T14:16:15.306Z,100350.75
2022-08-14T14:18:55.857Z,100355.91
2022-08-14T14:21:29.051Z,100333.13
2022-08-14T14:23:58.237Z,100284.16
2022-08-14T14:26:26.947Z,100304.28
2022-08-14T14:28:57.434Z,100237.00
2022-08-14T14:31:29.907Z,100328.28
2022-08-14T14:34:00.704Z,100322.38
2022-08-14T14:36:29.539Z,100211.00
2022-08-14T14:39:01.272Z,100279.69
2022-08-14T14:41:38.212Z,100204.78
2022-08-14T14:44:16.150Z,100303.72
2022-08-14T14:46:44.937Z,100261.72
2022-08-14T14:49:14.554Z,100281.72
2022-08-14T14:51:46.956Z,100285.50
2022-08-14T14:54:31.581Z,100280.91
2022-08-14T14:57:02.504Z,100222.34
2022-08-14T14:59:35.801Z,100293.41
2022-08-14T15:02:08.009Z,100303.28
2022-08-14T15:04:39.027Z,100242.09
2022-08-14T15:07:12.433Z,100276.34
2022-08-14T15:09:39.901Z,100276.34
2022-08-14T15:12:34.142Z,100284.81
2022-08-14T15:14:58.115Z,100272.44
2022-08-14T15:17:41.118Z,100276.25
2022-08-14T15:20:17.286Z,100204.94
2022-08-14T15:22:51.238Z,100259.28
2022-08-14T15:25:18.564Z,100235.97
2022-08-14T15:27:46.039Z,100257.63
2022-08-14T15:30:23.686Z,100229.22
2022-08-14T15:32:51.873Z,100253.94
2022-08-14T15:35:22.795Z,100159.16
2022-08-14T15:37:55.706Z,100215.28
2022-08-14T15:40:23.259Z,100232.28
2022-08-14T15:42:53.549Z,100195.91
2022-08-14T15:45:22.969Z,100211.88
2022-08-14T15:47:51.863Z,100206.97
2022-08-14T15:50:19.448Z,100245.56
2022-08-14T15:52:46.668Z,100251.47
2022-08-14T15:55:15.490Z,100226.47
2022-08-14T15:57:51.470Z,100079.03
2022-08-14T16:00:55.530Z,100128.84
2022-08-14T16:03:27.080Z,100244.94
2022-08-14T16:06:01.145Z,100244.72
2022-08-14T16:08:30.313Z,100227.41
2022-08-14T16:11:00.260Z,100134.81
2022-08-14T16:13:39.118Z,100204.22
2022-08-14T16:16:49.223Z,100143.03
2022-08-14T16:19:18.306Z,100179.38
2022-08-14T16:22:02.146Z,100244.81
2022-08-14T16:24:36.109Z,100239.53
2022-08-14T16:27:38.802Z,100195.84
2022-08-14T16:30:20.478Z,100241.75
2022-08-14T16:35:55.811Z,100198.53
2022-08-14T16:38:45.648Z,100219.16
2022-08-14T16:40:24.515Z,100229.91
2022-08-14T16:41:23.094Z,100186.06
2022-08-14T16:44:02.219Z,100227.19
2022-08-14T16:46:43.002Z,100203.31
2022-08-14T16:49:12.859Z,100206.88
2022-08-14T16:51:41.581Z,100224.59
2022-08-14T16:54:34.448Z,100214.03
2022-08-14T16:57:19.888Z,100224.72
2022-08-14T16:59:52.751Z,100210.13
2022-08-14T17:02:35.129Z,100224.16
2022-08-14T17:05:22.581Z,100201.75
2022-08-14T17:08:28.311Z,100222.06
2022-08-14T17:10:50.986Z,100230.34
2022-08-14T17:13:18.243Z,100216.72
2022-08-14T17:16:23.951Z,100223.88
2022-08-14T17:18:55.471Z,100230.16
2022-08-14T17:21:35.453Z,100219.63
2022-08-14T17:24:55.948Z,100189.44
2022-08-14T17:26:55.103Z,100214.56
2022-08-14T17:29:29.581Z,100178.94
2022-08-14T17:35:02.169Z,100226.69
2022-08-14T17:37:35.660Z,100242.84
2022-08-14T17:40:15.982Z,100228.59
2022-08-14T17:42:51.757Z,100259.84
2022-08-14T17:45:41.301Z,100190.50
2022-08-14T17:49:14.329Z,100241.38
2022-08-14T17:51:14.576Z,100209.38
2022-08-14T17:53:53.013Z,100194.78
2022-08-14T17:56:29.172Z,100158.56
2022-08-14T17:59:05.738Z,100238.47
2022-08-14T18:01:38.678Z,100256.53
2022-08-14T18:04:24.924Z,100248.91
2022-08-14T18:06:58.531Z,100245.69
2022-08-14T18:09:56.224Z,100272.00
2022-08-14T18:12:31.540Z,100272.56
2022-08-14T18:15:14.529Z,100278.91
2022-08-14T18:17:53.291Z,100276.19
2022-08-14T18:21:41.042Z,100273.50
2022-08-14T18:23:12.835Z,100272.41
2022-08-14T18:25:52.618Z,100261.38
2022-08-14T18:28:35.392Z,100262.31
2022-08-14T18:31:22.713Z,100281.56
2022-08-14T18:33:59.490Z,100272.00
2022-08-14T18:36:55.437Z,100279.91
2022-08-14T18:40:02.489Z,100237.28
2022-08-14T18:42:23.591Z,100292.84
2022-08-14T18:44:50.869Z,100295.03
2022-08-14T18:47:20.408Z,100298.06
2022-08-14T18:49:54.438Z,100297.50
2022-08-14T18:52:23.436Z,100300.25
2022-08-14T18:54:59.181Z,100305.44
2022-08-14T18:57:27.233Z,100297.81
2022-08-14T19:00:33.114Z,100312.88
2022-08-14T19:03:08.005Z,100224.78
2022-08-14T19:05:37.647Z,100306.31
2022-08-14T19:08:24.867Z,100305.50
2022-08-14T19:10:59.816Z,100317.28
2022-08-14T19:13:44.596Z,100205.63
2022-08-14T19:16:17.240Z,100264.72
2022-08-14T19:18:53.464Z,100295.38
2022-08-14T19:21:27.364Z,100313.97
2022-08-14T19:24:27.337Z,100333.72
2022-08-14T19:27:23.579Z,100285.78
2022-08-14T19:29:52.019Z,100313.44
2022-08-14T19:32:41.556Z,100323.31
2022-08-14T19:35:22.832Z,100281.66
2022-08-14T19:37:56.346Z,100324.38
2022-08-14T19:40:34.215Z,100344.09
2022-08-14T19:43:09.030Z,100345.47
2022-08-14T19:45:38.747Z,100351.47
2022-08-14T19:48:14.462Z,100228.78
2022-08-14T19:50:46.737Z,100343.53
2022-08-14T19:53:17.146Z,100353.66
2022-08-14T19:55:57.272Z,100319.41
2022-08-14T19:58:54.573Z,100346.25
2022-08-14T20:01:36.975Z,100339.13
2022-08-14T20:04:46.837Z,100354.72
2022-08-14T20:07:09.291Z,100325.94
2022-08-14T20:11:07.095Z,100325.44
2022-08-14T20:12:35.504Z,100351.16
2022-08-14T20:15:15.276Z,100364.28
2022-08-14T20:17:52.533Z,100343.66
2022-08-14T20:20:31.616Z,100308.91
2022-08-14T20:23:02.021Z,100344.78
2022-08-14T20:25:37.050Z,100319.88
2022-08-14T20:28:29.909Z,100296.34
2022-08-14T20:31:15.781Z,100291.94
2022-08-14T20:34:03.393Z,100324.81
2022-08-14T20:36:30.127Z,100291.34
2022-08-14T20:38:57.964Z,100319.84
2022-08-14T20:41:25.328Z,100322.00
2022-08-14T20:44:11.907Z,100297.88
2022-08-14T20:46:42.186Z,100326.63
2022-08-14T20:49:10.905Z,100332.91
2022-08-14T20:51:54.924Z,100344.38
2022-08-14T20:54:34.271Z,100330.16
2022-08-14T20:57:09.072Z,100343.81
2022-08-14T20:59:43.425Z,100327.41
2022-08-14T21:02:50.150Z,100319.72
2022-08-14T21:05:21.255Z,100349.53
2022-08-14T21:07:50.406Z,100364.00
2022-08-14T21:10:34.055Z,100342.59
2022-08-14T21:13:26.463Z,100339.03
2022-08-14T21:15:57.745Z,100343.16
2022-08-14T21:18:31.676Z,100330.47
2022-08-14T21:21:07.110Z,100327.94
2022-08-14T21:23:53.825Z,100350.69
2022-08-14T21:26:51.005Z,100346.81
2022-08-14T21:29:11.969Z,100334.22
2022-08-14T21:31:40.386Z,100301.88
2022-08-14T21:34:31.095Z,100286.19
2022-08-14T21:36:54.703Z,100333.31
2022-08-14T21:39:24.973Z,100295.72
2022-08-14T21:41:58.697Z,100289.66
2022-08-14T21:44:42.600Z,100317.09
2022-08-14T21:47:11.401Z,100323.44
2022-08-14T21:49:38.761Z,100292.97
2022-08-14T21:52:52.048Z,100302.84
2022-08-14T21:55:00.668Z,100277.84
2022-08-14T21:57:56.237Z,100294.25
2022-08-14T22:00:32.431Z,100303.34
2022-08-14T22:03:06.366Z,100266.06
2022-08-14T22:05:38.744Z,100299.25
2022-08-14T22:08:06.639Z,100338.19
2022-08-14T22:10:35.741Z,100346.94
2022-08-14T22:13:02.753Z,100331.22
2022-08-14T22:15:32.145Z,100339.28
2022-08-14T22:18:00.175Z,100139.81
2022-08-14T22:20:30.008Z,100261.59
2022-08-14T22:22:58.566Z,100355.81
2022-08-14T22:25:33.535Z,100265.50
2022-08-14T22:28:03.099Z,100357.88
2022-08-14T22:30:30.566Z,100305.66
2022-08-14T22:33:00.209Z,100268.91
2022-08-14T22:35:28.406Z,100270.00
2022-08-14T22:38:34.694Z,100335.06
2022-08-14T22:41:05.840Z,100321.63
2022-08-14T22:43:34.987Z,100294.41
2022-08-14T22:46:14.351Z,100305.75
2022-08-14T22:48:44.480Z,100316.47
2022-08-14T22:51:17.671Z,100319.44
2022-08-14T22:53:46.280Z,100313.06
2022-08-14T22:56:20.513Z,100309.44
2022-08-14T22:58:49.943Z,100322.66
2022-08-14T23:01:56.468Z,100286.38
2022-08-14T23:04:35.608Z,100312.75
2022-08-14T23:07:21.770Z,100272.44
2022-08-14T23:09:57.753Z,100282.88
2022-08-14T23:12:54.795Z,100309.66
2022-08-14T23:15:24.742Z,100315.16
2022-08-14T23:17:56.711Z,100306.13
2022-08-14T23:20:23.549Z,100305.66
2022-08-14T23:22:56.222Z,100319.44
2022-08-14T23:25:57.414Z,100301.69
2022-08-14T23:28:32.945Z,100267.66
2022-08-14T23:31:05.932Z,100304.16
2022-08-14T23:33:34.984Z,100292.94
2022-08-14T23:36:04.665Z,100268.47
2022-08-14T23:38:52.428Z,100292.97
2022-08-14T23:41:21.127Z,100246.09
2022-08-14T23:43:50.552Z,100283.41
2022-08-14T23:46:19.230Z,100214.53
2022-08-14T23:48:47.027Z,100158.28
2022-08-14T23:51:16.095Z,100282.38
2022-08-14T23:53:48.466Z,100218.72
2022-08-14T23:56:32.343Z,100275.22
2022-08-14T23:59:01.081Z,100297.25
